createdAt,value
2019-01-28T00:00:03.532Z,92.8
2019-01-28T00:01:03.163Z,92.8
2019-01-28T00:02:03.154Z,92.6
2019-01-28T00:03:03.037Z,92.6
2019-01-28T00:04:02.321Z,91.7
2019-01-28T00:05:02.345Z,93.3
2019-01-28T00:06:01.824Z,92.4
2019-01-28T00:07:03.620Z,93.3
2019-01-28T00:08:03.140Z,94.2
2019-01-28T00:09:03.394Z,94.2
2019-01-28T00:10:03.660Z,95.4
2019-01-28T00:11:03.704Z,94.7
2019-01-28T00:12:02.968Z,94.7
2019-01-28T00:13:03.488Z,94.7
2019-01-28T00:14:03.101Z,95.2
2019-01-28T00:15:02.926Z,95.2
2019-01-28T00:16:02.969Z,94.7
2019-01-28T00:17:02.673Z,94.7
2019-01-28T00:18:03.881Z,95.2
2019-01-28T00:19:03.556Z,95.2
2019-01-28T00:20:02.842Z,96.6
2019-01-28T00:21:03.118Z,96.6
2019-01-28T00:22:03.175Z,94.5
2019-01-28T00:23:02.735Z,94.5
2019-01-28T00:24:03.650Z,94.7
2019-01-28T00:25:03.201Z,91.9
2019-01-28T00:26:03.348Z,95.4
2019-01-28T00:27:02.227Z,92.1
2019-01-28T00:28:02.756Z,92.8
2019-01-28T00:29:02.763Z,94.2
2019-01-28T00:30:03.042Z,94
2019-01-28T00:31:03.164Z,96.3
2019-01-28T00:32:03.332Z,95.2
2019-01-28T00:33:03.151Z,95.2
2019-01-28T00:34:03.385Z,96.6
2019-01-28T00:35:02.768Z,99.8
2019-01-28T00:36:03.089Z,98
2019-01-28T00:37:02.859Z,98
2019-01-28T00:38:03.057Z,99.4
2019-01-28T00:39:03.317Z,100.8
2019-01-28T00:40:02.993Z,100.8
2019-01-28T00:41:03.037Z,98.7
2019-01-28T00:42:02.959Z,101.2
2019-01-28T00:43:02.979Z,101.2
2019-01-28T00:44:03.520Z,100.1
2019-01-28T00:45:03.804Z,100.1
2019-01-28T00:46:03.203Z,100.1
2019-01-28T00:47:02.833Z,100.1
2019-01-28T00:48:02.959Z,100.1
2019-01-28T00:49:03.670Z,100.1
2019-01-28T00:50:03.409Z,100.5
2019-01-28T00:51:03.493Z,101.2
2019-01-28T00:52:03.152Z,102.6
2019-01-28T00:53:02.787Z,102.6
2019-01-28T00:54:03.520Z,103.3
2019-01-28T00:55:03.425Z,104.5
2019-01-28T00:56:02.942Z,104.7
2019-01-28T00:57:01.971Z,105
2019-01-28T00:58:03.489Z,104.7
2019-01-28T00:59:03.688Z,105.2
2019-01-28T01:00:03.308Z,106.6
2019-01-28T01:01:03.026Z,106.6
2019-01-28T01:02:03.107Z,104.3
2019-01-28T01:03:03.799Z,104.5
2019-01-28T01:04:03.140Z,103.8
2019-01-28T01:05:03.655Z,104.3
2019-01-28T01:06:03.056Z,104
2019-01-28T01:07:03.619Z,102.9
2019-01-28T01:08:02.852Z,102.2
2019-01-28T01:09:03.409Z,103.3
2019-01-28T01:10:02.696Z,103.1
2019-01-28T01:11:03.173Z,100.8
2019-01-28T01:12:03.986Z,101.7
2019-01-28T01:13:03.233Z,100.3
2019-01-28T01:14:03.754Z,100.5
2019-01-28T01:15:03.057Z,99.8
2019-01-28T01:16:03.578Z,99.6
2019-01-28T01:17:02.847Z,98.7
2019-01-28T01:18:03.153Z,99.8
2019-01-28T01:19:03.448Z,100.8
2019-01-28T01:20:02.968Z,100.1
2019-01-28T01:21:03.038Z,100.5
2019-01-28T01:22:02.890Z,100.1
2019-01-28T01:23:03.627Z,100.3
2019-01-28T01:24:03.786Z,101.2
2019-01-28T01:25:03.557Z,100.5
2019-01-28T01:26:03.503Z,100.5
2019-01-28T01:27:03.616Z,100.5
2019-01-28T01:28:03.629Z,99.8
2019-01-28T01:29:03.010Z,99.1
2019-01-28T01:30:03.675Z,99.4
2019-01-28T01:31:02.748Z,100.5
2019-01-28T01:32:02.947Z,98.2
2019-01-28T01:33:02.677Z,98.7
2019-01-28T01:34:03.086Z,98.4
2019-01-28T01:35:02.521Z,97.5
2019-01-28T01:36:03.352Z,96.3
2019-01-28T01:37:02.916Z,95.2
2019-01-28T01:38:03.339Z,96.3
2019-01-28T01:39:03.691Z,95.2
2019-01-28T01:40:03.520Z,95.9
2019-01-28T01:41:03.058Z,91.9
2019-01-28T01:42:03.285Z,94.5
2019-01-28T01:43:03.667Z,92.8
2019-01-28T01:44:03.233Z,92.6
2019-01-28T01:45:03.738Z,92.6
2019-01-28T01:46:03.007Z,91.2
2019-01-28T01:47:03.468Z,92.4
2019-01-28T01:48:03.049Z,91.2
2019-01-28T01:49:02.811Z,91.2
2019-01-28T01:50:02.886Z,91.9
2019-01-28T01:51:03.335Z,92.1
2019-01-28T01:52:03.050Z,92.8
2019-01-28T01:53:03.560Z,90.7
2019-01-28T01:54:03.648Z,90.7
2019-01-28T01:55:03.284Z,90.3
2019-01-28T01:56:03.778Z,90.7
2019-01-28T01:57:03.455Z,90
2019-01-28T01:58:03.623Z,90.3
2019-01-28T01:59:03.433Z,90
2019-01-28T02:00:03.320Z,89.8
2019-01-28T02:01:03.220Z,90
2019-01-28T02:02:03.507Z,89.1
2019-01-28T02:03:02.522Z,90
2019-01-28T02:04:03.227Z,89.1
2019-01-28T02:05:02.835Z,90.3
2019-01-28T02:06:03.484Z,89.6
2019-01-28T02:07:02.913Z,90.7
2019-01-28T02:08:03.183Z,91
2019-01-28T02:09:03.494Z,91.4
2019-01-28T02:10:03.339Z,90.7
2019-01-28T02:11:03.577Z,92.6
2019-01-28T02:12:03.046Z,94.5
2019-01-28T02:13:04.062Z,92.6
2019-01-28T02:14:02.924Z,94
2019-01-28T02:15:03.661Z,93.1
2019-01-28T02:16:02.992Z,94.2
2019-01-28T02:17:03.608Z,92.8
2019-01-28T02:18:02.812Z,95.4
2019-01-28T02:19:03.196Z,94.5
2019-01-28T02:20:03.826Z,94.7
2019-01-28T02:21:03.016Z,94.9
2019-01-28T02:22:02.802Z,94.5
2019-01-28T02:23:02.978Z,94.5
2019-01-28T02:24:03.116Z,93.5
2019-01-28T02:25:03.281Z,94
2019-01-28T02:26:03.597Z,94
2019-01-28T02:27:03.028Z,94.9
2019-01-28T02:28:03.767Z,94.5
2019-01-28T02:29:02.790Z,94.5
2019-01-28T02:30:04.108Z,95.4
2019-01-28T02:31:02.887Z,94.5
2019-01-28T02:32:03.567Z,95.4
2019-01-28T02:33:03.104Z,94.7
2019-01-28T02:34:03.298Z,95.6
2019-01-28T02:35:03.247Z,94.7
2019-01-28T02:36:03.842Z,95.9
2019-01-28T02:37:03.052Z,95.6
2019-01-28T02:38:03.439Z,96.6
2019-01-28T02:39:03.091Z,98.2
2019-01-28T02:40:03.321Z,99.6
2019-01-28T02:41:02.945Z,98.9
2019-01-28T02:42:03.194Z,98.4
2019-01-28T02:43:02.852Z,99.1
2019-01-28T02:44:03.601Z,100.5
2019-01-28T02:45:03.107Z,99.1
2019-01-28T02:46:03.323Z,99.6
2019-01-28T02:47:03.468Z,99.4
2019-01-28T02:48:03.282Z,97.5
2019-01-28T02:49:03.881Z,99.6
2019-01-28T02:50:03.269Z,96.8
2019-01-28T02:51:03.542Z,97.5
2019-01-28T02:52:03.059Z,97
2019-01-28T02:53:03.527Z,94.7
2019-01-28T02:54:03.046Z,97.3
2019-01-28T02:55:03.515Z,97.3
2019-01-28T02:56:03.037Z,97.7
2019-01-28T02:57:03.568Z,97.3
2019-01-28T02:58:03.459Z,98
2019-01-28T02:59:02.948Z,98
2019-01-28T03:00:02.989Z,98.7
2019-01-28T03:01:03.416Z,97.7
2019-01-28T03:02:03.075Z,97.5
2019-01-28T03:03:03.112Z,97.5
2019-01-28T03:04:03.501Z,99.1
2019-01-28T03:05:03.073Z,95.4
2019-01-28T03:06:02.749Z,96.1
2019-01-28T03:07:02.956Z,94.9
2019-01-28T03:08:03.006Z,94.9
2019-01-28T03:09:02.863Z,94
2019-01-28T03:10:03.591Z,91.9
2019-01-28T03:11:03.104Z,94.7
2019-01-28T03:12:02.815Z,92.8
2019-01-28T03:13:03.291Z,93.5
2019-01-28T03:14:03.155Z,94.7
2019-01-28T03:15:03.506Z,92.8
2019-01-28T03:16:03.165Z,94.2
2019-01-28T03:17:03.484Z,92.8
2019-01-28T03:18:03.231Z,93.8
2019-01-28T03:19:02.916Z,93.1
2019-01-28T03:20:03.352Z,92.8
2019-01-28T03:21:02.782Z,92.6
2019-01-28T03:22:03.323Z,94.2
2019-01-28T03:23:03.750Z,94.7
2019-01-28T03:24:03.240Z,94.9
2019-01-28T03:25:03.460Z,92.4
2019-01-28T03:26:02.658Z,93.5
2019-01-28T03:27:03.088Z,92.6
2019-01-28T03:28:02.890Z,94.2
2019-01-28T03:29:03.708Z,92.4
2019-01-28T03:30:03.451Z,94.5
2019-01-28T03:31:02.958Z,94.7
2019-01-28T03:32:03.361Z,93.3
2019-01-28T03:33:03.268Z,95.9
2019-01-28T03:34:03.629Z,95.2
2019-01-28T03:35:03.042Z,95.4
2019-01-28T03:36:03.410Z,97
2019-01-28T03:37:03.638Z,94.7
2019-01-28T03:38:02.819Z,93.8
2019-01-28T03:39:03.228Z,93.5
2019-01-28T03:40:03.254Z,93.5
2019-01-28T03:41:02.883Z,93.3
2019-01-28T03:42:03.650Z,93.8
2019-01-28T03:43:03.329Z,91.7
2019-01-28T03:44:03.527Z,93.3
2019-01-28T03:45:03.419Z,92.6
2019-01-28T03:46:03.426Z,92.8
2019-01-28T03:47:03.548Z,92.8
2019-01-28T03:48:03.102Z,93.3
2019-01-28T03:49:03.725Z,93.3
2019-01-28T03:50:03.263Z,93.1
2019-01-28T03:51:03.511Z,94
2019-01-28T03:52:03.071Z,92.8
2019-01-28T03:53:03.446Z,92.6
2019-01-28T03:54:03.402Z,94.7
2019-01-28T03:55:03.029Z,93.3
2019-01-28T03:56:03.447Z,93.5
2019-01-28T03:57:03.557Z,92.1
2019-01-28T03:58:03.281Z,94.9
2019-01-28T03:59:03.489Z,92.8
2019-01-28T04:00:02.665Z,95.6
2019-01-28T04:01:03.301Z,94.5
2019-01-28T04:02:03.428Z,94.2
2019-01-28T04:03:03.172Z,96.8
2019-01-28T04:04:03.458Z,96.6
2019-01-28T04:05:03.441Z,97
2019-01-28T04:06:02.838Z,97.7
2019-01-28T04:07:02.799Z,97
2019-01-28T04:08:03.814Z,97
2019-01-28T04:09:02.531Z,97.5
2019-01-28T04:10:03.087Z,98.2
2019-01-28T04:11:03.042Z,97
2019-01-28T04:12:02.988Z,95.4
2019-01-28T04:13:02.620Z,96.6
2019-01-28T04:14:03.522Z,97.5
2019-01-28T04:15:03.285Z,97.7
2019-01-28T04:16:02.770Z,97.7
2019-01-28T04:17:02.909Z,98.9
2019-01-28T04:18:03.706Z,97.7
2019-01-28T04:19:03.423Z,98.9
2019-01-28T04:20:02.846Z,98
2019-01-28T04:21:02.959Z,96.8
2019-01-28T04:22:03.216Z,97
2019-01-28T04:23:03.546Z,98.4
2019-01-28T04:24:03.338Z,99.4
2019-01-28T04:25:03.761Z,98
2019-01-28T04:26:03.575Z,99.6
2019-01-28T04:27:02.852Z,98
2019-01-28T04:28:03.246Z,98.4
2019-01-28T04:29:02.919Z,96.6
2019-01-28T04:30:02.783Z,96.3
2019-01-28T04:31:02.878Z,95.6
2019-01-28T04:32:02.831Z,95.4
2019-01-28T04:33:03.313Z,95.4
2019-01-28T04:34:03.531Z,95.9
2019-01-28T04:35:03.342Z,97.3
2019-01-28T04:36:03.400Z,96.8
2019-01-28T04:37:03.072Z,95.9
2019-01-28T04:38:02.478Z,98.4
2019-01-28T04:39:03.095Z,96.3
2019-01-28T04:40:03.016Z,96.1
2019-01-28T04:41:03.031Z,97.5
2019-01-28T04:42:03.453Z,96.8
2019-01-28T04:43:03.457Z,94.7
2019-01-28T04:44:02.835Z,96.1
2019-01-28T04:45:03.900Z,96.3
2019-01-28T04:46:02.881Z,95.4
2019-01-28T04:47:03.537Z,96.6
2019-01-28T04:48:03.287Z,95.9
2019-01-28T04:49:03.195Z,95.2
2019-01-28T04:50:02.837Z,95.2
2019-01-28T04:51:03.080Z,94.7
2019-01-28T04:52:03.419Z,94
2019-01-28T04:53:03.430Z,95.6
2019-01-28T04:54:03.339Z,94
2019-01-28T04:55:03.275Z,96.1
2019-01-28T04:56:03.073Z,94.2
2019-01-28T04:57:02.694Z,94.2
2019-01-28T04:58:03.954Z,94.7
2019-01-28T04:59:03.201Z,92.1
2019-01-28T05:00:03.022Z,91.4
2019-01-28T05:01:03.086Z,91
2019-01-28T05:02:03.042Z,90.7
2019-01-28T05:03:03.660Z,92.8
2019-01-28T05:04:03.165Z,91.4
2019-01-28T05:05:02.910Z,91
2019-01-28T05:06:02.667Z,89.6
2019-01-28T05:07:03.392Z,90.3
2019-01-28T05:08:03.633Z,90.5
2019-01-28T05:09:03.391Z,91
2019-01-28T05:10:03.828Z,90.7
2019-01-28T05:11:02.768Z,91.4
2019-01-28T05:12:03.085Z,90.7
2019-01-28T05:13:05.111Z,89.6
2019-01-28T05:14:03.260Z,89.1
2019-01-28T05:15:03.429Z,87.5
2019-01-28T05:16:03.038Z,87.9
2019-01-28T05:17:03.521Z,88.4
2019-01-28T05:18:03.719Z,87.2
2019-01-28T05:19:02.887Z,87.7
2019-01-28T05:20:02.648Z,88.2
2019-01-28T05:21:02.764Z,86.5
2019-01-28T05:22:03.133Z,88.9
2019-01-28T05:23:03.312Z,86.8
2019-01-28T05:24:03.476Z,89.6
2019-01-28T05:25:02.702Z,86.1
2019-01-28T05:26:03.026Z,88.2
2019-01-28T05:27:02.882Z,87.2
2019-01-28T05:28:03.539Z,87
2019-01-28T05:29:02.885Z,88.9
2019-01-28T05:30:03.043Z,87.9
2019-01-28T05:31:03.607Z,88.4
2019-01-28T05:32:02.696Z,88.6
2019-01-28T05:33:03.472Z,85.8
2019-01-28T05:34:02.699Z,86.8
2019-01-28T05:35:02.984Z,85.8
2019-01-28T05:36:03.557Z,85.4
2019-01-28T05:37:03.291Z,84.7
2019-01-28T05:38:02.666Z,86.1
2019-01-28T05:39:03.084Z,85.4
2019-01-28T05:40:03.128Z,84.4
2019-01-28T05:41:03.182Z,84.4
2019-01-28T05:42:03.368Z,86.3
2019-01-28T05:43:03.356Z,83.7
2019-01-28T05:44:03.427Z,86.1
2019-01-28T05:45:04.522Z,84
2019-01-28T05:47:03.832Z,84.7
2019-01-28T05:47:05.014Z,85.1
2019-01-28T05:48:09.672Z,87
2019-01-28T05:49:04.438Z,86.3
2019-01-28T05:50:03.752Z,88.2
2019-01-28T05:51:03.047Z,88.9
2019-01-28T05:52:03.183Z,87.5
2019-01-28T05:53:02.862Z,88.9
2019-01-28T05:54:02.942Z,87.9
2019-01-28T05:55:03.416Z,88.4
2019-01-28T05:56:03.168Z,88.4
2019-01-28T05:57:03.504Z,89.1
2019-01-28T05:58:03.433Z,89.1
2019-01-28T05:59:03.389Z,91.4
2019-01-28T06:00:03.621Z,90
2019-01-28T06:01:03.452Z,91.4
2019-01-28T06:02:03.029Z,91.4
2019-01-28T06:03:03.171Z,91.7
2019-01-28T06:04:03.176Z,92.8
2019-01-28T06:05:03.792Z,92.1
2019-01-28T06:06:03.562Z,91.2
2019-01-28T06:07:03.666Z,92.1
2019-01-28T06:08:03.431Z,92.1
2019-01-28T06:09:03.158Z,89.8
2019-01-28T06:10:03.672Z,88.6
2019-01-28T06:11:03.000Z,88.9
2019-01-28T06:12:03.678Z,88.9
2019-01-28T06:13:02.675Z,91.7
2019-01-28T06:14:02.945Z,92.4
2019-01-28T06:15:03.360Z,92.1
2019-01-28T06:16:03.616Z,92.1
2019-01-28T06:17:03.219Z,91.2
2019-01-28T06:18:03.516Z,91.9
2019-01-28T06:19:02.764Z,91.9
2019-01-28T06:20:03.152Z,92.6
2019-01-28T06:21:04.878Z,91
2019-01-28T06:22:03.425Z,91.7
2019-01-28T06:23:02.911Z,90.7
2019-01-28T06:24:03.110Z,91.4
2019-01-28T06:25:02.853Z,90.7
2019-01-28T06:26:02.971Z,90.7
2019-01-28T06:27:03.666Z,90.5
2019-01-28T06:28:03.029Z,91.2
2019-01-28T06:29:02.995Z,91.4
2019-01-28T06:30:03.113Z,91
2019-01-28T06:31:03.158Z,91.2
2019-01-28T06:32:03.167Z,91.9
2019-01-28T06:33:02.980Z,91.4
2019-01-28T06:34:03.450Z,93.3
2019-01-28T06:35:03.068Z,92.6
2019-01-28T06:36:02.835Z,94.2
2019-01-28T06:37:02.888Z,93.8
2019-01-28T06:38:03.610Z,93.1
2019-01-28T06:39:03.745Z,93.1
2019-01-28T06:40:02.935Z,93.5
2019-01-28T06:41:02.872Z,93.8
2019-01-28T06:42:02.819Z,93.8
2019-01-28T06:43:03.450Z,94.5
2019-01-28T06:44:03.002Z,91.4
2019-01-28T06:45:03.598Z,91.7
2019-01-28T06:46:03.673Z,91.9
2019-01-28T06:47:03.310Z,92.6
2019-01-28T06:48:03.339Z,91.9
2019-01-28T06:49:03.138Z,90.7
2019-01-28T06:50:03.549Z,91.4
2019-01-28T06:51:03.503Z,92.4
2019-01-28T06:52:02.856Z,91.9
2019-01-28T06:53:03.494Z,92.4
2019-01-28T06:54:03.099Z,93.1
2019-01-28T06:55:03.707Z,93.1
2019-01-28T06:56:03.374Z,91.4
2019-01-28T06:57:03.997Z,93.3
2019-01-28T06:58:02.714Z,92.1
2019-01-28T06:59:03.461Z,92.6
2019-01-28T07:00:03.758Z,91.9
2019-01-28T07:01:02.917Z,92.1
2019-01-28T07:02:02.712Z,92.8
2019-01-28T07:03:03.238Z,91.2
2019-01-28T07:04:02.994Z,91.9
2019-01-28T07:05:03.596Z,91.9
2019-01-28T07:06:03.720Z,91.4
2019-01-28T07:07:03.121Z,92.6
2019-01-28T07:08:03.312Z,93.8
2019-01-28T07:09:03.106Z,94.2
2019-01-28T07:10:03.331Z,95.9
2019-01-28T07:11:03.469Z,93.3
2019-01-28T07:12:03.412Z,93.5
2019-01-28T07:13:03.181Z,93.8
2019-01-28T07:14:03.385Z,91.9
2019-01-28T07:15:03.094Z,93.3
2019-01-28T07:16:03.413Z,92.4
2019-01-28T07:17:03.561Z,92.4
2019-01-28T07:18:03.227Z,92.6
2019-01-28T07:19:03.258Z,93.1
2019-01-28T07:20:02.874Z,92.8
2019-01-28T07:21:02.483Z,93.3
2019-01-28T07:22:03.250Z,93.5
2019-01-28T07:23:03.320Z,93.3
2019-01-28T07:24:02.436Z,93.5
2019-01-28T07:25:03.497Z,93.5
2019-01-28T07:26:03.227Z,95.6
2019-01-28T07:27:03.492Z,93.8
2019-01-28T07:28:03.130Z,94.7
2019-01-28T07:29:03.448Z,94
2019-01-28T07:30:03.552Z,92.8
2019-01-28T07:31:02.969Z,94
2019-01-28T07:32:03.433Z,93.1
2019-01-28T07:33:03.270Z,92.6
2019-01-28T07:34:02.700Z,91.9
2019-01-28T07:35:03.638Z,91.7
2019-01-28T07:36:02.866Z,92.4
2019-01-28T07:37:03.711Z,93.1
2019-01-28T07:38:03.800Z,93.1
2019-01-28T07:39:03.625Z,94.5
2019-01-28T07:40:03.540Z,95.6
2019-01-28T07:41:03.487Z,95.6
2019-01-28T07:42:03.321Z,97.3
2019-01-28T07:43:03.214Z,97
2019-01-28T07:44:03.027Z,98
2019-01-28T07:45:03.513Z,98.4
2019-01-28T07:46:03.709Z,98.9
2019-01-28T07:47:02.952Z,99.8
2019-01-28T07:48:03.548Z,99.6
2019-01-28T07:49:03.337Z,98.9
2019-01-28T07:50:03.326Z,98.9
2019-01-28T07:51:03.339Z,97.7
2019-01-28T07:52:03.669Z,96.8
2019-01-28T07:53:03.027Z,96.8
2019-01-28T07:54:03.596Z,95.9
2019-01-28T07:55:03.699Z,96.3
2019-01-28T07:56:03.261Z,94.7
2019-01-28T07:57:03.134Z,97
2019-01-28T07:58:03.147Z,95.2
2019-01-28T07:59:03.606Z,94.7
2019-01-28T08:00:03.518Z,94.9
2019-01-28T08:01:03.495Z,95.9
2019-01-28T08:02:03.392Z,95.4
2019-01-28T08:03:03.444Z,94.9
2019-01-28T08:04:03.427Z,95.6
2019-01-28T08:05:03.344Z,94.9
2019-01-28T08:06:03.395Z,94.5
2019-01-28T08:07:03.748Z,94
2019-01-28T08:08:02.713Z,95.6
2019-01-28T08:09:03.535Z,94.9
2019-01-28T08:10:03.864Z,95.2
2019-01-28T08:11:02.715Z,95.9
2019-01-28T08:12:01.797Z,96.6
2019-01-28T08:13:02.711Z,96.6
2019-01-28T08:14:02.881Z,97.7
2019-01-28T08:15:02.964Z,97
2019-01-28T08:16:03.249Z,98
2019-01-28T08:17:02.922Z,98.2
2019-01-28T08:18:11.275Z,98
2019-01-28T08:19:03.019Z,98
2019-01-28T08:20:02.995Z,96.3
2019-01-28T08:21:03.511Z,95.4
2019-01-28T08:22:02.533Z,93.5
2019-01-28T08:23:03.426Z,93.8
2019-01-28T08:24:03.737Z,92.1
2019-01-28T08:25:03.220Z,91.2
2019-01-28T08:26:03.235Z,91.9
2019-01-28T08:27:03.035Z,90
2019-01-28T08:28:02.965Z,91.2
2019-01-28T08:29:03.607Z,88.6
2019-01-28T08:30:03.093Z,91.2
2019-01-28T08:31:02.638Z,89.8
2019-01-28T08:32:03.160Z,90.5
2019-01-28T08:33:03.283Z,90.5
2019-01-28T08:34:03.216Z,88.9
2019-01-28T08:35:03.061Z,89.1
2019-01-28T08:36:02.756Z,89.1
2019-01-28T08:37:03.255Z,88.4
2019-01-28T08:38:03.332Z,86.3
2019-01-28T08:39:02.885Z,86.3
2019-01-28T08:40:03.158Z,84.7
2019-01-28T08:41:03.004Z,84.7
2019-01-28T08:42:03.087Z,85.8
2019-01-28T08:43:03.086Z,84.9
2019-01-28T08:44:03.532Z,86.3
2019-01-28T08:45:02.810Z,84.4
2019-01-28T08:46:03.013Z,84
2019-01-28T08:47:03.135Z,83.3
2019-01-28T08:48:02.976Z,84
2019-01-28T08:49:03.101Z,82.3
2019-01-28T08:50:03.065Z,83.3
2019-01-28T08:51:02.866Z,82.6
2019-01-28T08:52:02.892Z,83.7
2019-01-28T08:53:03.074Z,82.6
2019-01-28T08:54:03.054Z,83.5
2019-01-28T08:55:03.345Z,81.6
2019-01-28T08:56:03.353Z,81.4
2019-01-28T08:57:03.432Z,82.8
2019-01-28T08:58:03.240Z,82.6
2019-01-28T08:59:02.795Z,81.9
2019-01-28T09:00:03.054Z,81.9
2019-01-28T09:01:03.073Z,83
2019-01-28T09:02:04.222Z,81.9
2019-01-28T09:03:03.203Z,82.3
2019-01-28T09:04:03.241Z,84.2
2019-01-28T09:05:02.654Z,84
2019-01-28T09:06:03.607Z,82.8
2019-01-28T09:07:02.994Z,84
2019-01-28T09:08:03.270Z,84.2
2019-01-28T09:09:03.418Z,83.7
2019-01-28T09:10:03.411Z,82.8
2019-01-28T09:11:03.346Z,83.3
2019-01-28T09:12:02.845Z,82.6
2019-01-28T09:13:03.461Z,83
2019-01-28T09:14:03.071Z,84
2019-01-28T09:15:03.778Z,81.6
2019-01-28T09:16:03.596Z,83
2019-01-28T09:17:03.192Z,81.2
2019-01-28T09:18:03.490Z,81.6
2019-01-28T09:19:03.190Z,83
2019-01-28T09:20:02.942Z,82.6
2019-01-28T09:21:03.096Z,84.7
2019-01-28T09:22:03.129Z,84.4
2019-01-28T09:23:02.747Z,84.7
2019-01-28T09:24:03.067Z,86.3
2019-01-28T09:25:03.132Z,85.8
2019-01-28T09:26:03.147Z,87.5
2019-01-28T09:27:03.066Z,88.2
2019-01-28T09:28:03.456Z,88.9
2019-01-28T09:29:03.414Z,89.1
2019-01-28T09:30:03.273Z,90.7
2019-01-28T09:31:03.557Z,89.6
2019-01-28T09:32:03.146Z,91
2019-01-28T09:33:03.542Z,92.6
2019-01-28T09:34:02.955Z,90.7
2019-01-28T09:35:03.257Z,92.8
2019-01-28T09:36:03.034Z,91.7
2019-01-28T09:37:03.371Z,91.2
2019-01-28T09:38:03.362Z,91.4
2019-01-28T09:39:03.336Z,91.2
2019-01-28T09:40:04.246Z,93.5
2019-01-28T09:41:02.480Z,91.7
2019-01-28T09:42:03.482Z,91.9
2019-01-28T09:43:03.689Z,92.4
2019-01-28T09:44:02.932Z,92.8
2019-01-28T09:45:03.230Z,92.8
2019-01-28T09:46:03.093Z,93.3
2019-01-28T09:47:03.716Z,94
2019-01-28T09:48:03.102Z,94.9
2019-01-28T09:49:03.636Z,94.9
2019-01-28T09:50:03.202Z,97.7
2019-01-28T09:51:03.001Z,96.1
2019-01-28T09:52:03.446Z,96.8
2019-01-28T09:53:03.692Z,98.9
2019-01-28T09:54:02.779Z,98.2
2019-01-28T09:55:03.461Z,98.4
2019-01-28T09:56:03.270Z,98
2019-01-28T09:57:03.436Z,99.1
2019-01-28T09:58:02.733Z,98
2019-01-28T09:59:03.336Z,97.3
2019-01-28T10:00:03.415Z,97.7
2019-01-28T10:01:03.104Z,99.4
2019-01-28T10:02:03.540Z,97.3
2019-01-28T10:03:03.280Z,97.7
2019-01-28T10:04:03.421Z,99.6
2019-01-28T10:05:03.405Z,98.4
2019-01-28T10:06:02.963Z,98.2
2019-01-28T10:07:03.766Z,98.7
2019-01-28T10:08:03.767Z,97.7
2019-01-28T10:09:03.748Z,96.3
2019-01-28T10:10:03.561Z,99.6
2019-01-28T10:11:03.069Z,97.7
2019-01-28T10:12:03.190Z,99.1
2019-01-28T10:13:02.737Z,99.1
2019-01-28T10:14:02.897Z,98.4
2019-01-28T10:15:03.672Z,98
2019-01-28T10:16:02.791Z,98.2
2019-01-28T10:17:03.011Z,98
2019-01-28T10:18:02.917Z,100.3
2019-01-28T10:19:03.256Z,98.2
2019-01-28T10:20:03.471Z,97.5
2019-01-28T10:21:02.728Z,99.1
2019-01-28T10:22:03.008Z,98.9
2019-01-28T10:23:03.365Z,98.2
2019-01-28T10:24:02.830Z,99.8
2019-01-28T10:25:03.610Z,100.3
2019-01-28T10:26:03.430Z,100.3
2019-01-28T10:27:02.678Z,99.4
2019-01-28T10:28:03.568Z,99.4
2019-01-28T10:29:03.649Z,98.7
2019-01-28T10:30:03.782Z,98.7
2019-01-28T10:31:02.536Z,96.8
2019-01-28T10:32:03.061Z,97.7
2019-01-28T10:33:03.137Z,98
2019-01-28T10:34:03.440Z,96.6
2019-01-28T10:35:03.920Z,98
2019-01-28T10:36:02.977Z,97.7
2019-01-28T10:37:04.374Z,97.3
2019-01-28T10:38:05.407Z,97.3
2019-01-28T10:39:03.542Z,97.7
2019-01-28T10:40:03.034Z,97
2019-01-28T10:41:03.695Z,96.3
2019-01-28T10:42:03.757Z,95.9
2019-01-28T10:43:02.720Z,96.1
2019-01-28T10:44:10.616Z,94.5
2019-01-28T10:45:02.998Z,94.5
2019-01-28T10:46:02.866Z,93.1
2019-01-28T10:47:03.257Z,93.8
2019-01-28T10:48:03.261Z,93.8
2019-01-28T10:49:02.804Z,93.8
2019-01-28T10:50:03.164Z,93.5
2019-01-28T10:51:02.698Z,93.3
2019-01-28T10:52:03.632Z,92.6
2019-01-28T10:53:03.599Z,93.1
2019-01-28T10:54:03.598Z,91.4
2019-01-28T10:55:02.865Z,92.8
2019-01-28T10:56:03.296Z,91.2
2019-01-28T10:57:03.290Z,91.9
2019-01-28T10:58:03.453Z,93.1
2019-01-28T10:59:02.973Z,93.1
2019-01-28T11:00:03.401Z,93.1
2019-01-28T11:01:03.374Z,93.5
2019-01-28T11:02:03.037Z,93.1
2019-01-28T11:03:02.828Z,93.8
2019-01-28T11:04:02.941Z,93.5
2019-01-28T11:05:03.722Z,92.6
2019-01-28T11:06:03.168Z,92.1
2019-01-28T11:07:03.191Z,93.3
2019-01-28T11:08:03.547Z,94.5
2019-01-28T11:09:03.493Z,92.4
2019-01-28T11:10:03.494Z,94.5
2019-01-28T11:11:03.822Z,91.9
2019-01-28T11:12:03.485Z,93.1
2019-01-28T11:13:03.055Z,92.4
2019-01-28T11:14:03.092Z,93.1
2019-01-28T11:15:03.376Z,93.1
2019-01-28T11:16:03.363Z,94
2019-01-28T11:17:02.764Z,94.2
2019-01-28T11:18:02.726Z,95.2
2019-01-28T11:19:03.802Z,95.4
2019-01-28T11:20:03.816Z,96.3
2019-01-28T11:21:03.055Z,96.3
2019-01-28T11:22:03.900Z,97.5
2019-01-28T11:23:02.786Z,96.8
2019-01-28T11:24:04.011Z,97.5
2019-01-28T11:25:03.768Z,97.3
2019-01-28T11:26:03.348Z,98.2
2019-01-28T11:27:03.343Z,97
2019-01-28T11:28:03.425Z,98.2
2019-01-28T11:29:02.853Z,98.7
2019-01-28T11:30:02.331Z,98.7
2019-01-28T11:31:03.014Z,98.7
2019-01-28T11:32:03.735Z,99.1
2019-01-28T11:33:03.482Z,99.8
2019-01-28T11:34:03.094Z,97.5
2019-01-28T11:35:03.113Z,98.9
2019-01-28T11:36:05.990Z,100.3
2019-01-28T11:37:04.040Z,100.5
2019-01-28T11:38:03.338Z,101
2019-01-28T11:39:03.475Z,102.9
2019-01-28T11:40:03.517Z,101.5
2019-01-28T11:41:03.737Z,101.7
2019-01-28T11:42:03.808Z,102.2
2019-01-28T11:43:03.833Z,102.6
2019-01-28T11:44:03.172Z,102.9
2019-01-28T11:45:03.056Z,102.6
2019-01-28T11:46:03.476Z,103.1
2019-01-28T11:47:03.045Z,104
2019-01-28T11:48:02.983Z,102.9
2019-01-28T11:49:06.597Z,103.6
2019-01-28T11:50:03.930Z,103.6
2019-01-28T11:51:03.099Z,102.6
2019-01-28T11:52:02.977Z,102.6
2019-01-28T11:53:03.837Z,103.6
2019-01-28T11:54:03.596Z,103.3
2019-01-28T11:55:03.433Z,105
2019-01-28T11:56:03.071Z,103.6
2019-01-28T11:57:03.466Z,104.3
2019-01-28T11:58:02.748Z,105.4
2019-01-28T11:59:02.470Z,104.7
2019-01-28T12:00:03.462Z,104.3
2019-01-28T12:01:02.861Z,104.5
2019-01-28T12:02:03.032Z,102.6
2019-01-28T12:03:03.123Z,103.8
2019-01-28T12:04:03.000Z,102.2
2019-01-28T12:05:03.827Z,102.6
2019-01-28T12:06:03.451Z,101.5
2019-01-28T12:07:03.173Z,103.8
2019-01-28T12:08:02.812Z,103.1
2019-01-28T12:09:03.534Z,103.6
2019-01-28T12:10:03.800Z,102.4
2019-01-28T12:11:02.974Z,103.1
2019-01-28T12:12:03.042Z,103.3
2019-01-28T12:13:03.521Z,103.3
2019-01-28T12:14:03.097Z,101.5
2019-01-28T12:15:03.004Z,102.2
2019-01-28T12:16:03.608Z,99.8
2019-01-28T12:17:03.450Z,101.5
2019-01-28T12:18:03.040Z,98.9
2019-01-28T12:19:03.379Z,98.9
2019-01-28T12:20:03.726Z,99.1
2019-01-28T12:21:03.143Z,97.7
2019-01-28T12:22:02.913Z,97.7
2019-01-28T12:23:03.065Z,97.7
2019-01-28T12:24:02.897Z,98
2019-01-28T12:25:03.463Z,97.7
2019-01-28T12:26:03.687Z,97.5
2019-01-28T12:27:03.693Z,96.1
2019-01-28T12:28:02.953Z,97.3
2019-01-28T12:29:03.825Z,95.9
2019-01-28T12:30:03.174Z,96.3
2019-01-28T12:31:03.608Z,95.9
2019-01-28T12:32:03.053Z,96.3
2019-01-28T12:33:03.444Z,97.3
2019-01-28T12:34:03.094Z,96.1
2019-01-28T12:35:03.088Z,96.8
2019-01-28T12:36:03.072Z,97.7
2019-01-28T12:37:02.826Z,97.5
2019-01-28T12:38:03.048Z,95.4
2019-01-28T12:39:03.511Z,97.3
2019-01-28T12:40:02.801Z,96.8
2019-01-28T12:41:03.474Z,95.9
2019-01-28T12:42:03.087Z,97.5
2019-01-28T12:43:03.326Z,95.4
2019-01-28T12:44:03.386Z,97.5
2019-01-28T12:45:03.454Z,95.9
2019-01-28T12:46:03.762Z,98.4
2019-01-28T12:47:03.396Z,97
2019-01-28T12:48:03.328Z,97.7
2019-01-28T12:49:03.680Z,96.6
2019-01-28T12:50:02.993Z,97.5
2019-01-28T12:51:02.997Z,97.3
2019-01-28T12:52:03.152Z,97
2019-01-28T12:53:03.739Z,99.1
2019-01-28T12:54:02.992Z,98.4
2019-01-28T12:55:02.803Z,100.5
2019-01-28T12:56:03.257Z,100.1
2019-01-28T12:57:03.108Z,101.5
2019-01-28T12:58:03.509Z,103.1
2019-01-28T12:59:09.459Z,101.2
2019-01-28T13:00:03.409Z,104
2019-01-28T13:01:03.396Z,103.3
2019-01-28T13:02:02.772Z,103.6
2019-01-28T13:03:03.237Z,105.2
2019-01-28T13:04:03.394Z,103.8
2019-01-28T13:05:03.174Z,103.8
2019-01-28T13:06:03.181Z,102.4
2019-01-28T13:07:02.947Z,102.6
2019-01-28T13:08:02.908Z,102.2
2019-01-28T13:09:03.870Z,101.7
2019-01-28T13:10:02.779Z,100.5
2019-01-28T13:11:02.927Z,101.9
2019-01-28T13:12:03.278Z,101.5
2019-01-28T13:13:03.293Z,102.6
2019-01-28T13:14:03.196Z,101.5
2019-01-28T13:15:03.764Z,103.3
2019-01-28T13:16:02.936Z,102.2
2019-01-28T13:17:03.533Z,104
2019-01-28T13:18:03.641Z,102.4
2019-01-28T13:19:03.274Z,102.6